Time;durP1;ratioP1;P1;durP2;ratioP2;P2;SDS_P1;SDS_P2;PMS_P1;PMS_P2;Temp;Humidity;BMP_temperature;BMP_pressure;BME280_temperature;BME280_humidity;BME280_pressure;Samples;Min_cycle;Max_cycle;Signal;HPM_P1;HPM_P2
2022/11/04 00:01:55;;;;;;;4.55;3.80;;;12.50;86.20;;;;;;5028089;28;20100;-68
2022/11/04 00:04:23;;;;;;;5.07;4.00;;;12.50;86.40;;;;;;5025628;28;20038;-68
2022/11/04 00:06:49;;;;;;;4.82;3.70;;;12.50;86.40;;;;;;5027262;28;20105;-68
2022/11/04 00:09:21;;;;;;;4.70;3.63;;;12.50;86.30;;;;;;5031687;28;20048;-68
2022/11/04 00:14:31;;;;;;;5.28;4.43;;;12.50;86.20;;;;;;5042515;28;20537;-68
2022/11/04 00:33:24;;;;;;;6.15;5.38;;;12.40;86.40;;;;;;5041406;28;20056;-68
2022/11/04 00:33:48;;;;;;;7.72;6.35;;;12.40;86.50;;;;;;5036743;28;20120;-69
2022/11/04 00:36:14;;;;;;;8.35;6.60;;;12.40;86.50;;;;;;5041658;28;20026;-69
2022/11/04 00:38:40;;;;;;;8.23;7.10;;;12.40;86.40;;;;;;5041442;28;20028;-69
2022/11/04 00:41:24;;;;;;;10.10;9.05;;;12.40;86.50;;;;;;5036612;28;20021;-69
2022/11/04 00:43:50;;;;;;;10.73;9.30;;;12.40;86.50;;;;;;5043152;28;20564;-69
2022/11/04 00:46:16;;;;;;;12.60;11.15;;;12.40;86.80;;;;;;5047645;28;20511;-70
2022/11/04 00:48:41;;;;;;;10.45;9.25;;;12.40;86.90;;;;;;5044879;28;20032;-69
2022/11/04 00:51:07;;;;;;;10.75;9.38;;;12.30;86.80;;;;;;5050750;28;20029;-68
2022/11/04 00:53:32;;;;;;;11.55;10.27;;;12.40;86.90;;;;;;5049967;28;20070;-69
2022/11/04 00:55:58;;;;;;;10.90;9.80;;;12.40;86.80;;;;;;5047248;28;20451;-69
2022/11/04 00:58:24;;;;;;;9.95;8.88;;;12.30;86.70;;;;;;5043641;28;20083;-69
2022/11/04 01:00:50;;;;;;;9.50;8.35;;;12.30;86.80;;;;;;5046457;28;20398;-69
2022/11/04 01:03:15;;;;;;;9.23;7.68;;;12.30;86.70;;;;;;5045595;28;20100;-69
2022/11/04 01:05:41;;;;;;;9.70;6.32;;;12.20;86.50;;;;;;5049755;28;20376;-68
2022/11/04 01:08:06;;;;;;;5.68;5.07;;;12.10;86.50;;;;;;5045795;28;20044;-68
2022/11/04 01:10:35;;;;;;;6.88;5.38;;;12.10;86.40;;;;;;5045538;28;20040;-68
2022/11/04 01:13:00;;;;;;;4.32;3.92;;;12.10;86.30;;;;;;5041149;28;20021;-70
2022/11/04 01:15:26;;;;;;;4.00;3.58;;;12.10;86.10;;;;;;5045472;28;20047;-70
2022/11/04 01:17:52;;;;;;;3.22;2.90;;;12.00;85.70;;;;;;5048073;28;20452;-70
2022/11/04 01:20:17;;;;;;;3.53;3.20;;;11.90;85.60;;;;;;5036286;28;20030;-71
2022/11/04 01:22:43;;;;;;;3.72;2.53;;;11.90;85.50;;;;;;5043413;28;20705;-69
2022/11/04 01:25:09;;;;;;;2.92;2.35;;;11.80;85.20;;;;;;5046407;28;20070;-70
2022/11/04 01:27:34;;;;;;;2.65;2.45;;;11.80;85.20;;;;;;5045822;28;20036;-70
2022/11/04 01:30:00;;;;;;;2.70;2.10;;;11.70;85.10;;;;;;5034255;28;20037;-70
2022/11/04 01:32:27;;;;;;;2.15;1.90;;;11.70;85.10;;;;;;5048644;28;20056;-70
2022/11/04 01:34:52;;;;;;;1.67;1.58;;;11.70;85.00;;;;;;5042129;28;20068;-70
2022/11/04 01:37:18;;;;;;;2.03;1.42;;;11.60;85.00;;;;;;5042902;28;20064;-70
2022/11/04 01:39:43;;;;;;;1.55;1.40;;;11.60;84.90;;;;;;5045745;28;20602;-70
2022/11/04 01:42:13;;;;;;;1.30;1.20;;;11.60;84.80;;;;;;5045871;28;20425;-70
2022/11/04 01:44:53;;;;;;;1.30;1.15;;;11.50;84.80;;;;;;5041246;28;20041;-70
2022/11/04 01:47:26;;;;;;;1.50;1.40;;;11.50;84.90;;;;;;5043525;28;20025;-70
2022/11/04 01:49:56;;;;;;;1.95;1.40;;;11.50;85.30;;;;;;5045609;28;20033;-70
2022/11/04 01:52:35;;;;;;;1.70;1.50;;;11.50;84.70;;;;;;5044120;28;20013;-70
2022/11/04 01:55:06;;;;;;;1.77;1.63;;;11.40;84.60;;;;;;5048855;28;20051;-70
2022/11/04 01:57:39;;;;;;;2.28;1.58;;;11.40;84.60;;;;;;5040658;28;20021;-71
2022/11/04 02:00:07;;;;;;;2.47;1.92;;;11.50;84.70;;;;;;5041669;28;20137;-70
2022/11/04 02:02:43;;;;;;;2.60;2.40;;;11.50;84.60;;;;;;5048179;28;20056;-70
2022/11/04 02:05:09;;;;;;;4.22;3.33;;;11.50;84.50;;;;;;5048239;28;20021;-70
2022/11/04 02:07:35;;;;;;;5.25;3.42;;;11.50;84.50;;;;;;5040988;28;20057;-70
2022/11/04 02:10:01;;;;;;;4.47;2.53;;;11.50;84.50;;;;;;5039130;28;20562;-70
2022/11/04 02:15:11;;;;;;;4.80;4.30;;;11.50;84.50;;;;;;5046670;28;20056;-70
2022/11/04 02:18:03;;;;;;;8.00;6.63;;;11.50;84.60;;;;;;5044143;28;20028;-70
2022/11/04 02:20:58;;;;;;;6.75;5.90;;;11.50;84.50;;;;;;5040167;28;20036;-70
2022/11/04 02:24:01;;;;;;;7.82;6.70;;;11.60;84.60;;;;;;5046228;28;20057;-69
2022/11/04 02:26:46;;;;;;;7.85;6.55;;;11.50;84.50;;;;;;5040977;28;20025;-69
2022/11/04 02:29:30;;;;;;;9.73;8.73;;;11.60;84.60;;;;;;5048772;28;20112;-69
2022/11/04 02:32:01;;;;;;;11.50;10.30;;;11.60;84.60;;;;;;5042321;28;20032;-69
2022/11/04 02:34:41;;;;;;;11.27;9.48;;;11.60;84.60;;;;;;5041335;28;20021;-69
2022/11/04 02:37:19;;;;;;;12.88;11.57;;;11.60;84.90;;;;;;5045797;28;20454;-69
2022/11/04 02:40:12;;;;;;;11.80;10.43;;;11.50;85.10;;;;;;5040736;28;20017;-69
2022/11/04 02:42:56;;;;;;;;;;;11.50;85.10;;;;;;5041889;28;20032;-69
2022/11/04 02:45:37;;;;;;;14.15;12.23;;;11.50;85.00;;;;;;5039048;28;19916;-69
2022/11/04 02:48:40;;;;;;;12.73;11.43;;;11.50;85.30;;;;;;5042636;28;20041;-69
2022/11/04 02:51:14;;;;;;;14.60;12.93;;;11.50;85.40;;;;;;5040035;28;20171;-68
2022/11/04 02:54:03;;;;;;;13.48;11.00;;;11.50;85.60;;;;;;5032762;28;20654;-69
2022/11/04 02:56:30;;;;;;;16.88;14.60;;;11.60;85.60;;;;;;5045830;28;20039;-69
2022/11/04 02:59:03;;;;;;;16.63;14.88;;;11.50;85.50;;;;;;5045616;28;20021;-69
2022/11/04 03:01:33;;;;;;;16.88;14.95;;;11.50;85.50;;;;;;5039507;28;20530;-69
2022/11/04 03:04:22;;;;;;;16.25;14.50;;;11.60;85.50;;;;;;5044095;28;20086;-69
2022/11/04 03:06:50;;;;;;;14.90;13.10;;;11.60;85.40;;;;;;5032505;28;20055;-69
2022/11/04 03:09:19;;;;;;;18.10;16.27;;;11.60;85.50;;;;;;5036774;28;20119;-69
2022/11/04 03:11:49;;;;;;;18.80;16.80;;;11.50;85.40;;;;;;5048895;28;20022;-68
2022/11/04 03:14:30;;;;;;;19.73;17.63;;;11.50;85.50;;;;;;5042438;28;20040;-70
2022/11/04 03:17:02;;;;;;;16.38;14.50;;;11.60;85.50;;;;;;5047941;28;20017;-70
2022/11/04 03:19:35;;;;;;;23.15;19.65;;;11.60;85.50;;;;;;5040854;28;20134;-70
2022/11/04 03:22:07;;;;;;;18.25;15.38;;;11.50;85.50;;;;;;5045804;28;20026;-69
2022/11/04 03:24:33;;;;;;;20.17;18.08;;;11.60;85.50;;;;;;5039227;28;20127;-70
2022/11/04 03:27:04;;;;;;;19.23;17.13;;;11.60;85.50;;;;;;5048174;28;20025;-69
2022/11/04 03:29:36;;;;;;;18.27;15.48;;;11.60;86.30;;;;;;5041277;28;20116;-69
2022/11/04 03:32:05;;;;;;;18.13;16.23;;;11.60;85.60;;;;;;5046531;28;20083;-69
2022/11/04 03:34:31;;;;;;;20.52;17.75;;;11.60;85.50;;;;;;5045291;28;20026;-69
2022/11/04 03:36:57;;;;;;;19.38;16.58;;;11.60;85.50;;;;;;5036402;28;20017;-69
2022/11/04 03:39:23;;;;;;;20.88;18.67;;;11.70;85.50;;;;;;5035450;28;20014;-69
2022/11/04 03:41:54;;;;;;;17.40;15.60;;;11.70;85.50;;;;;;5039483;28;20028;-69
2022/11/04 03:44:19;;;;;;;17.17;15.38;;;11.70;85.40;;;;;;5046293;28;20022;-69
2022/11/04 03:46:45;;;;;;;21.90;18.88;;;11.70;85.40;;;;;;5046590;28;20028;-69
2022/11/04 03:49:11;;;;;;;19.67;17.58;;;11.70;85.40;;;;;;5042897;28;20033;-70
2022/11/04 03:51:37;;;;;;;17.20;14.90;;;11.60;85.50;;;;;;5033212;28;20610;-69
2022/11/04 03:54:04;;;;;;;18.88;15.07;;;11.60;85.00;;;;;;5034383;28;20097;-69
2022/11/04 03:57:11;;;;;;;17.23;15.43;;;11.60;85.30;;;;;;5047718;28;20654;-69
2022/11/04 04:00:05;;;;;;;16.20;14.50;;;11.60;85.40;;;;;;5028377;28;20033;-69
2022/11/04 04:02:58;;;;;;;14.98;13.43;;;11.60;85.40;;;;;;5043810;28;20031;-69
2022/11/04 04:05:35;;;;;;;16.00;13.43;;;11.60;85.40;;;;;;5046112;28;20025;-70
2022/11/04 04:08:22;;;;;;;16.25;13.85;;;11.60;85.30;;;;;;5039740;28;20032;-70
2022/11/04 04:11:04;;;;;;;16.52;13.90;;;11.60;85.20;;;;;;5043808;28;20052;-70
2022/11/04 04:13:40;;;;;;;16.90;14.88;;;11.60;85.20;;;;;;5044164;28;20029;-70
2022/11/04 04:16:15;;;;;;;15.27;13.60;;;11.60;85.30;;;;;;5045538;28;20045;-70
2022/11/04 04:18:49;;;;;;;15.55;13.45;;;11.50;85.30;;;;;;5046378;28;20029;-70
2022/11/04 04:21:19;;;;;;;14.15;11.88;;;11.60;85.30;;;;;;5047492;28;20020;-69
2022/11/04 04:29:20;;;;;;;13.25;10.75;;;11.50;85.00;;;;;;5048809;28;20183;-70
2022/11/04 04:31:48;;;;;;;16.63;12.35;;;11.50;85.00;;;;;;5039460;28;20644;-70
2022/11/04 04:34:21;;;;;;;11.52;10.05;;;11.50;84.90;;;;;;5045530;28;20031;-69
2022/11/04 04:37:00;;;;;;;12.60;9.75;;;11.50;84.90;;;;;;5050452;28;20047;-70
2022/11/04 04:45:03;;;;;;;12.00;9.50;;;11.50;84.80;;;;;;5052253;28;20032;-70
2022/11/04 04:47:39;;;;;;;13.07;11.25;;;11.50;84.70;;;;;;5049518;28;20021;-70
2022/11/04 04:50:05;;;;;;;11.68;9.93;;;11.50;84.70;;;;;;5044631;28;20114;-70
2022/11/04 04:52:35;;;;;;;15.05;10.07;;;11.40;84.70;;;;;;5036283;28;20040;-70
2022/11/04 04:55:01;;;;;;;10.57;8.48;;;11.40;84.70;;;;;;5046499;28;20109;-70
2022/11/04 04:57:26;;;;;;;12.02;8.98;;;11.40;84.70;;;;;;5034715;28;20084;-70
2022/11/04 04:59:52;;;;;;;8.95;7.43;;;11.30;84.60;;;;;;5040233;28;20017;-70
2022/11/04 05:02:18;;;;;;;8.15;6.53;;;11.40;84.50;;;;;;5042825;28;20031;-69
2022/11/04 05:04:43;;;;;;;7.53;6.00;;;11.30;84.50;;;;;;5047690;28;20043;-69
2022/11/04 05:07:09;;;;;;;10.05;5.80;;;11.30;84.50;;;;;;5049681;28;20029;-69
2022/11/04 05:09:35;;;;;;;8.00;5.18;;;11.30;84.40;;;;;;5044480;28;20033;-69
2022/11/04 05:12:01;;;;;;;6.72;5.13;;;11.30;84.40;;;;;;5047627;28;20025;-70
2022/11/04 05:14:27;;;;;;;7.60;5.65;;;11.20;84.40;;;;;;5044866;28;20506;-70
2022/11/04 05:16:53;;;;;;;6.40;5.00;;;11.20;84.30;;;;;;5045183;28;20123;-70
2022/11/04 05:19:18;;;;;;;7.13;5.18;;;11.20;84.40;;;;;;5048179;28;20065;-69
2022/11/04 05:21:44;;;;;;;7.90;5.43;;;11.10;84.40;;;;;;5042577;28;20025;-70
2022/11/04 05:24:10;;;;;;;7.68;5.13;;;11.10;84.50;;;;;;5046825;28;20024;-70
2022/11/04 05:26:35;;;;;;;8.50;5.68;;;11.00;84.60;;;;;;5044144;28;20451;-70
2022/11/04 05:29:01;;;;;;;6.15;5.00;;;11.00;84.60;;;;;;5045120;28;20059;-70
2022/11/04 05:31:28;;;;;;;8.93;5.20;;;11.00;84.70;;;;;;5038031;28;20029;-69
2022/11/04 05:33:53;;;;;;;8.10;5.65;;;10.90;84.60;;;;;;5048708;28;20057;-71
2022/11/04 05:36:19;;;;;;;8.35;6.10;;;10.90;84.50;;;;;;5042919;28;20510;-69
2022/11/04 05:38:50;;;;;;;12.27;6.72;;;10.90;84.40;;;;;;5042944;28;20594;-70
2022/11/04 05:41:24;;;;;;;8.75;6.38;;;10.80;84.40;;;;;;5044102;28;20094;-70
2022/11/04 05:43:51;;;;;;;9.07;6.05;;;10.70;84.40;;;;;;5036362;28;20369;-71
2022/11/04 05:46:17;;;;;;;7.97;6.40;;;10.70;84.50;;;;;;5044158;28;20036;-69
2022/11/04 05:48:43;;;;;;;8.75;6.30;;;10.70;84.60;;;;;;5041199;28;20021;-69
2022/11/04 05:51:16;;;;;;;7.10;5.00;;;10.60;84.60;;;;;;5046066;28;20055;-70
2022/11/04 05:53:42;;;;;;;7.00;5.00;;;10.70;84.60;;;;;;5046026;28;20040;-70
2022/11/04 05:56:08;;;;;;;5.15;3.92;;;10.70;84.50;;;;;;5040375;28;20036;-69
2022/11/04 05:58:33;;;;;;;7.55;4.93;;;10.70;84.40;;;;;;5045377;28;20039;-69
2022/11/04 06:01:29;;;;;;;7.47;4.45;;;10.70;84.40;;;;;;5044001;28;20017;-69
2022/11/04 06:03:56;;;;;;;6.53;4.30;;;10.70;84.40;;;;;;5042798;28;20140;-70
2022/11/04 06:06:23;;;;;;;5.10;4.20;;;10.70;84.30;;;;;;5042407;28;20075;-69
2022/11/04 06:08:51;;;;;;;6.93;4.68;;;10.70;84.30;;;;;;5047980;28;20028;-69
2022/11/04 06:11:18;;;;;;;6.07;4.30;;;10.70;84.30;;;;;;5044136;28;20035;-69
2022/11/04 06:13:43;;;;;;;6.43;4.40;;;10.70;84.30;;;;;;5044275;28;20063;-69
2022/11/04 06:16:08;;;;;;;6.55;3.78;;;10.70;84.40;;;;;;5044524;28;20036;-69
2022/11/04 06:18:34;;;;;;;8.52;4.30;;;10.70;84.50;;;;;;5044596;28;20149;-69
2022/11/04 06:21:12;;;;;;;7.18;4.20;;;10.70;84.40;;;;;;5037218;28;20379;-70
2022/11/04 06:23:38;;;;;;;6.32;4.00;;;10.70;84.40;;;;;;5041028;28;20078;-70
2022/11/04 06:26:04;;;;;;;6.32;3.72;;;10.70;84.40;;;;;;5042074;28;20028;-70
2022/11/04 06:28:30;;;;;;;6.47;3.70;;;10.60;84.30;;;;;;5038606;28;20529;-70
2022/11/04 06:31:00;;;;;;;7.82;3.65;;;10.70;84.50;;;;;;5046794;28;20033;-68
2022/11/04 06:33:27;;;;;;;7.10;3.28;;;10.60;84.50;;;;;;5040615;28;20539;-68
2022/11/04 06:35:56;;;;;;;6.03;3.50;;;10.60;84.60;;;;;;5048990;28;20025;-70
2022/11/04 06:38:22;;;;;;;8.70;4.05;;;10.50;84.70;;;;;;5046224;28;20126;-69
2022/11/04 06:40:47;;;;;;;5.82;3.63;;;10.50;84.90;;;;;;5043821;28;20088;-69
2022/11/04 06:43:13;;;;;;;4.43;3.30;;;10.50;84.90;;;;;;5041468;28;20107;-71
2022/11/04 06:45:39;;;;;;;4.70;3.10;;;10.60;84.90;;;;;;5043359;28;20025;-71
2022/11/04 06:48:05;;;;;;;6.70;3.40;;;10.60;84.80;;;;;;5049607;28;20487;-70
2022/11/04 06:50:30;;;;;;;5.15;3.45;;;10.60;84.70;;;;;;5040490;28;20055;-70
2022/11/04 06:52:56;;;;;;;6.70;3.38;;;10.60;84.60;;;;;;5043026;28;20017;-69
2022/11/04 06:55:22;;;;;;;6.95;3.22;;;10.50;84.40;;;;;;5031931;28;20036;-68
2022/11/04 06:57:47;;;;;;;6.10;3.40;;;10.50;84.50;;;;;;5039682;28;20037;-69
2022/11/04 07:00:13;;;;;;;4.88;3.40;;;10.50;84.40;;;;;;5042076;28;20029;-68
2022/11/04 07:02:39;;;;;;;7.35;3.83;;;10.40;84.50;;;;;;5047821;28;20028;-70
2022/11/04 07:05:05;;;;;;;7.63;2.90;;;10.40;84.50;;;;;;5039274;28;20025;-70
2022/11/04 07:07:31;;;;;;;3.90;2.70;;;10.40;84.60;;;;;;5037921;28;20029;-70
2022/11/04 07:09:56;;;;;;;7.30;3.22;;;10.40;84.40;;;;;;5045915;28;20498;-69
2022/11/04 07:12:23;;;;;;;6.35;3.70;;;10.40;84.40;;;;;;5042992;28;20029;-69
2022/11/04 07:14:50;;;;;;;9.88;4.03;;;10.40;84.50;;;;;;5044623;28;20452;-69
2022/11/04 07:17:15;;;;;;;5.88;3.17;;;10.40;84.40;;;;;;5037307;28;20108;-69
2022/11/04 07:19:41;;;;;;;7.18;3.40;;;10.40;84.40;;;;;;5037549;28;20155;-70
2022/11/04 07:22:07;;;;;;;12.57;4.20;;;10.50;84.40;;;;;;5037474;28;20014;-69
2022/11/04 07:24:33;;;;;;;8.52;3.28;;;10.50;84.30;;;;;;5030179;28;20033;-68
2022/11/04 07:26:58;;;;;;;11.10;3.35;;;10.50;84.10;;;;;;5042089;28;20438;-69
2022/11/04 07:29:24;;;;;;;11.13;3.40;;;10.50;84.00;;;;;;5045614;28;20079;-70
2022/11/04 07:31:50;;;;;;;8.27;3.10;;;10.50;83.90;;;;;;5037233;28;20051;-70
2022/11/04 07:34:15;;;;;;;12.60;4.20;;;10.60;83.90;;;;;;5042854;28;20021;-69
2022/11/04 07:36:41;;;;;;;21.15;4.57;;;10.50;83.80;;;;;;5044817;28;20020;-69
2022/11/04 07:39:06;;;;;;;8.85;3.80;;;10.50;84.00;;;;;;5029976;28;20014;-71
2022/11/04 07:41:32;;;;;;;9.82;3.80;;;10.40;84.20;;;;;;5044296;28;20088;-70
2022/11/04 07:43:59;;;;;;;6.10;2.58;;;10.50;84.30;;;;;;5043712;28;20025;-69
2022/11/04 07:46:25;;;;;;;5.75;2.92;;;10.50;84.30;;;;;;5046189;28;20059;-70
2022/11/04 07:48:51;;;;;;;6.88;3.28;;;10.60;84.20;;;;;;5045166;28;20025;-68
2022/11/04 07:51:19;;;;;;;6.72;3.58;;;10.60;84.20;;;;;;5046579;28;20033;-70
2022/11/04 07:53:45;;;;;;;7.07;3.67;;;10.70;84.10;;;;;;5045198;28;20036;-68
2022/11/04 07:56:12;;;;;;;5.35;3.30;;;10.70;84.00;;;;;;5047760;28;20079;-70
2022/11/04 07:58:39;;;;;;;6.93;3.47;;;10.70;84.00;;;;;;5050774;28;20025;-70
2022/11/04 08:01:07;;;;;;;12.55;4.30;;;10.70;84.00;;;;;;5048656;28;20048;-69
2022/11/04 08:03:34;;;;;;;6.10;3.10;;;10.70;83.90;;;;;;5045113;28;20183;-69
2022/11/04 08:06:01;;;;;;;7.25;3.60;;;10.70;84.00;;;;;;5044881;28;20328;-69
2022/11/04 08:08:27;;;;;;;5.47;3.10;;;10.80;84.00;;;;;;5046509;28;20396;-70
2022/11/04 08:10:59;;;;;;;7.85;3.45;;;10.80;83.90;;;;;;5049601;28;20044;-70
2022/11/04 08:13:33;;;;;;;6.10;3.05;;;10.90;83.90;;;;;;5045108;28;20041;-69
2022/11/04 08:16:09;;;;;;;7.78;4.20;;;10.90;83.80;;;;;;5043132;28;20033;-69
2022/11/04 08:18:35;;;;;;;8.77;4.35;;;11.00;83.70;;;;;;5040569;28;20029;-71
2022/11/04 08:21:02;;;;;;;7.32;4.15;;;10.90;83.80;;;;;;5040659;28;20030;-70
2022/11/04 08:23:29;;;;;;;10.57;4.15;;;10.90;83.90;;;;;;5048730;28;20096;-70
2022/11/04 08:25:55;;;;;;;6.45;3.17;;;10.90;84.00;;;;;;5042703;28;20032;-67
2022/11/04 08:28:23;;;;;;;8.35;4.05;;;11.00;84.00;;;;;;5040257;28;20025;-70
2022/11/04 08:31:01;;;;;;;8.13;4.38;;;11.00;83.90;;;;;;5045316;28;20037;-71
2022/11/04 08:33:28;;;;;;;8.65;3.95;;;10.90;84.20;;;;;;5048042;28;20029;-70
2022/11/04 08:35:58;;;;;;;6.32;3.13;;;11.00;84.20;;;;;;5044984;28;20503;-71
2022/11/04 08:38:24;;;;;;;8.60;3.55;;;11.10;84.10;;;;;;5046608;28;20052;-69
2022/11/04 08:40:49;;;;;;;5.25;3.03;;;11.20;84.10;;;;;;5039871;28;20025;-68
2022/11/04 08:43:15;;;;;;;7.00;3.30;;;11.30;84.00;;;;;;5046860;28;20298;-69
2022/11/04 08:45:44;;;;;;;6.53;3.30;;;11.30;83.90;;;;;;5044739;28;20028;-68
2022/11/04 08:48:10;;;;;;;5.85;3.38;;;11.40;83.70;;;;;;5046553;28;20084;-68
2022/11/04 08:50:35;;;;;;;5.82;3.50;;;11.50;83.60;;;;;;5046165;28;20029;-69
2022/11/04 08:53:03;;;;;;;6.65;3.22;;;11.50;83.60;;;;;;5046482;28;20100;-69
2022/11/04 08:55:30;;;;;;;6.80;3.67;;;11.60;83.50;;;;;;5046818;28;20045;-68
2022/11/04 08:57:56;;;;;;;7.63;3.90;;;11.50;83.30;;;;;;5043202;28;20113;-69
2022/11/04 09:00:22;;;;;;;5.35;3.33;;;11.50;83.30;;;;;;5038352;28;20103;-69
2022/11/04 09:02:47;;;;;;;9.20;3.80;;;11.50;83.20;;;;;;5039528;28;20218;-69
2022/11/04 09:05:14;;;;;;;5.72;2.80;;;11.50;83.20;;;;;;5044284;28;20724;-67
2022/11/04 09:07:41;;;;;;;7.32;3.65;;;11.60;83.30;;;;;;5042894;28;20113;-67
2022/11/04 09:10:08;;;;;;;14.15;4.10;;;11.60;83.10;;;;;;5038867;28;20053;-67
2022/11/04 09:12:33;;;;;;;12.25;4.47;;;11.60;83.10;;;;;;5045947;28;21124;-67
2022/11/04 09:14:59;;;;;;;9.13;3.85;;;11.60;83.10;;;;;;5047277;28;20033;-68
2022/11/04 09:17:24;;;;;;;7.93;4.10;;;11.60;83.10;;;;;;5043842;28;20024;-68
2022/11/04 09:19:50;;;;;;;9.60;4.00;;;11.70;82.90;;;;;;5041541;28;20484;-69
2022/11/04 09:22:16;;;;;;;13.18;4.63;;;11.60;82.80;;;;;;5047251;28;20026;-69
2022/11/04 09:24:42;;;;;;;8.52;4.00;;;11.60;82.70;;;;;;5045607;28;21544;-68
2022/11/04 09:27:07;;;;;;;16.45;4.65;;;11.60;82.70;;;;;;5044612;28;20037;-68
2022/11/04 09:29:35;;;;;;;12.20;5.32;;;11.60;82.70;;;;;;5040969;28;20641;-69
2022/11/04 09:32:03;;;;;;;13.50;5.90;;;11.70;82.70;;;;;;5038747;28;20491;-69
2022/11/04 09:34:29;;;;;;;8.18;5.20;;;11.70;82.70;;;;;;5044805;28;20072;-68
2022/11/04 09:36:56;;;;;;;7.50;5.63;;;11.80;82.60;;;;;;5044060;28;20026;-69
2022/11/04 09:39:23;;;;;;;6.72;5.20;;;11.80;82.40;;;;;;5043191;28;20391;-69
2022/11/04 09:42:10;;;;;;;5.75;4.47;;;11.90;82.40;;;;;;5043150;28;20040;-68
2022/11/04 09:44:50;;;;;;;10.18;5.45;;;12.00;82.20;;;;;;5042383;28;20028;-69
2022/11/04 09:47:17;;;;;;;7.32;5.25;;;12.10;82.00;;;;;;5039125;28;20159;-68
2022/11/04 09:49:46;;;;;;;8.60;5.32;;;12.20;81.90;;;;;;5045566;28;20392;-69
2022/11/04 09:52:19;;;;;;;9.88;5.30;;;12.20;81.80;;;;;;5030883;28;20036;-68
2022/11/04 09:55:05;;;;;;;10.60;6.03;;;12.30;81.70;;;;;;5047279;28;20040;-69
2022/11/04 09:57:32;;;;;;;8.57;5.10;;;12.30;81.70;;;;;;5047635;28;20028;-69
2022/11/04 09:59:58;;;;;;;7.18;4.93;;;12.30;82.30;;;;;;5042629;28;20021;-69
2022/11/04 10:02:56;;;;;;;7.03;5.35;;;12.40;81.70;;;;;;5042618;28;20029;-69
2022/11/04 10:05:57;;;;;;;8.75;5.85;;;12.40;81.60;;;;;;5026235;28;20033;-69
2022/11/04 10:08:55;;;;;;;15.43;6.88;;;12.40;81.60;;;;;;5044989;28;20108;-68
2022/11/04 10:11:43;;;;;;;12.80;5.65;;;12.40;81.50;;;;;;5045529;28;20032;-68
2022/11/04 10:14:12;;;;;;;8.35;5.60;;;12.50;81.40;;;;;;5047002;28;20415;-68
2022/11/04 10:16:46;;;;;;;11.50;6.53;;;12.50;81.40;;;;;;5049624;28;20511;-69
2022/11/04 10:19:29;;;;;;;7.10;5.45;;;12.60;81.40;;;;;;5039479;28;20059;-68
2022/11/04 10:22:23;;;;;;;9.82;6.70;;;12.70;81.30;;;;;;5044579;28;20123;-69
2022/11/04 10:25:09;;;;;;;10.20;6.60;;;12.70;81.20;;;;;;5039045;28;20029;-68
2022/11/04 10:27:37;;;;;;;14.82;8.20;;;12.80;81.10;;;;;;5043108;28;20033;-69
2022/11/04 10:30:16;;;;;;;9.95;6.72;;;12.80;80.80;;;;;;5040580;28;20070;-68
2022/11/04 10:32:54;;;;;;;8.88;6.57;;;12.80;80.70;;;;;;5032982;28;20033;-68
2022/11/04 10:35:39;;;;;;;11.02;6.72;;;12.80;80.60;;;;;;5030011;28;20539;-68
2022/11/04 10:38:14;;;;;;;8.57;6.78;;;12.90;80.50;;;;;;5031707;28;20496;-69
2022/11/04 10:40:44;;;;;;;9.45;6.68;;;13.00;80.50;;;;;;5046924;28;20024;-69
2022/11/04 10:43:14;;;;;;;10.00;6.95;;;13.00;80.40;;;;;;5036771;28;20017;-69
2022/11/04 10:45:59;;;;;;;9.30;7.32;;;13.00;80.20;;;;;;5046336;28;20025;-68
2022/11/04 10:48:35;;;;;;;10.43;7.00;;;13.10;80.20;;;;;;5044153;28;20037;-69
2022/11/04 10:51:01;;;;;;;8.15;6.70;;;13.10;80.10;;;;;;5040268;28;20032;-69
2022/11/04 10:53:29;;;;;;;10.27;7.70;;;13.20;80.10;;;;;;5046444;28;20021;-68
2022/11/04 10:56:08;;;;;;;9.23;7.22;;;13.20;79.90;;;;;;5043791;28;20033;-69
2022/11/04 10:58:38;;;;;;;9.15;7.00;;;13.20;79.80;;;;;;5042847;28;20021;-68
2022/11/04 11:01:23;;;;;;;9.73;7.55;;;13.30;79.90;;;;;;5042945;28;20025;-68
2022/11/04 11:03:48;;;;;;;11.57;7.60;;;13.30;79.70;;;;;;5046260;28;20487;-69
2022/11/04 11:06:30;;;;;;;10.00;8.30;;;13.30;79.60;;;;;;5041744;28;20037;-69
2022/11/04 11:09:11;;;;;;;11.65;8.07;;;13.30;79.50;;;;;;5045364;28;20486;-68
2022/11/04 11:11:46;;;;;;;9.52;7.30;;;13.40;79.70;;;;;;5046323;28;20045;-69
2022/11/04 11:14:28;;;;;;;10.52;8.07;;;13.40;79.50;;;;;;5042684;28;20044;-68
2022/11/04 11:16:54;;;;;;;14.77;8.55;;;13.40;79.50;;;;;;5041281;28;20029;-69
2022/11/04 11:19:23;;;;;;;13.07;9.07;;;13.50;79.40;;;;;;5046144;28;20021;-69
2022/11/04 11:21:57;;;;;;;11.75;8.30;;;13.40;79.40;;;;;;5040357;28;20544;-69
2022/11/04 11:24:25;;;;;;;9.63;7.70;;;13.50;79.40;;;;;;5044325;28;20445;-68
2022/11/04 11:27:10;;;;;;;10.98;8.25;;;13.50;79.30;;;;;;5045045;28;20036;-69
2022/11/04 11:29:39;;;;;;;9.77;7.30;;;13.50;79.30;;;;;;5047529;28;20116;-68
2022/11/04 11:32:16;;;;;;;10.50;7.78;;;13.50;79.20;;;;;;5040293;28;20025;-68
2022/11/04 11:34:46;;;;;;;11.25;7.75;;;13.60;79.30;;;;;;5048051;28;20538;-68
2022/11/04 11:37:23;;;;;;;11.13;8.65;;;13.60;79.00;;;;;;5037079;28;20032;-69
2022/11/04 11:39:49;;;;;;;9.05;7.97;;;13.60;79.00;;;;;;5037011;28;20037;-69
2022/11/04 11:42:18;;;;;;;8.85;7.32;;;13.70;78.80;;;;;;5038798;28;21721;-69
2022/11/04 11:44:55;;;;;;;10.27;7.82;;;13.70;78.60;;;;;;5041883;28;20376;-69
2022/11/04 11:47:27;;;;;;;8.32;7.22;;;13.80;78.70;;;;;;5040163;28;20036;-69
2022/11/04 11:50:14;;;;;;;9.60;7.35;;;13.90;78.70;;;;;;5037816;28;20026;-69
2022/11/04 11:52:42;;;;;;;11.98;7.57;;;13.90;78.60;;;;;;5025120;28;20053;-70
2022/11/04 11:55:25;;;;;;;10.02;8.15;;;14.00;78.60;;;;;;5039134;28;20518;-70
2022/11/04 11:58:02;;;;;;;11.10;8.43;;;14.00;78.30;;;;;;5040549;28;20032;-69
2022/11/04 12:00:32;;;;;;;9.02;7.60;;;14.10;78.10;;;;;;5035658;28;20096;-69
2022/11/04 12:03:15;;;;;;;11.52;7.95;;;14.20;77.80;;;;;;5042272;28;20032;-69
2022/11/04 12:05:46;;;;;;;12.05;9.15;;;14.30;77.80;;;;;;5032478;28;20032;-69
2022/11/04 12:08:22;;;;;;;10.80;8.85;;;14.40;77.50;;;;;;5047899;28;20036;-69
2022/11/04 12:11:05;;;;;;;10.57;8.15;;;14.40;77.20;;;;;;5045214;28;20667;-69
2022/11/04 12:13:49;;;;;;;9.77;8.13;;;14.40;77.30;;;;;;5041366;28;20033;-69
2022/11/04 12:16:36;;;;;;;12.55;8.68;;;14.30;77.40;;;;;;5037726;28;20061;-69
2022/11/04 12:19:38;;;;;;;10.20;8.45;;;14.30;77.40;;;;;;5041364;28;20028;-69
2022/11/04 12:22:12;;;;;;;11.98;8.77;;;14.30;77.50;;;;;;5033784;28;20053;-70
2022/11/04 12:24:44;;;;;;;12.20;9.50;;;14.30;77.50;;;;;;5035765;28;20107;-69
2022/11/04 12:27:31;;;;;;;10.57;9.07;;;14.20;77.50;;;;;;5039198;28;20392;-69
2022/11/04 12:30:09;;;;;;;11.95;8.90;;;14.20;77.50;;;;;;5033061;28;20057;-69
2022/11/04 12:32:41;;;;;;;11.02;9.35;;;14.20;77.50;;;;;;5036997;28;20450;-69
2022/11/04 12:35:19;;;;;;;;;;;14.30;77.20;;;;;;5039234;28;20140;-69
2022/11/04 12:38:23;;;;;;;9.48;7.97;;;14.40;77.00;;;;;;5042481;28;19920;-69
2022/11/04 12:41:08;;;;;;;9.75;8.30;;;14.30;77.10;;;;;;5046832;28;20043;-69
2022/11/04 12:43:43;;;;;;;11.70;8.93;;;14.30;77.20;;;;;;5037887;28;20051;-69
2022/11/04 12:46:36;;;;;;;13.95;11.02;;;14.30;77.10;;;;;;5042946;28;20106;-69
2022/11/04 12:49:26;;;;;;;12.38;9.57;;;14.30;77.00;;;;;;5044861;28;20028;-69
2022/11/04 12:52:10;;;;;;;13.48;10.15;;;14.30;77.00;;;;;;5043265;28;20055;-69
2022/11/04 12:54:54;;;;;;;11.15;9.93;;;14.30;77.00;;;;;;5045644;28;20029;-69
2022/11/04 12:57:34;;;;;;;11.90;10.70;;;14.30;76.80;;;;;;5038953;28;20029;-69
2022/11/04 13:00:08;;;;;;;12.57;10.00;;;14.30;76.80;;;;;;5039313;28;20044;-69
2022/11/04 13:02:41;;;;;;;11.07;9.93;;;14.30;76.80;;;;;;5044002;28;20029;-70
2022/11/04 13:05:12;;;;;;;11.50;10.30;;;14.30;76.80;;;;;;5043358;28;20075;-69
2022/11/04 13:07:48;;;;;;;13.00;10.38;;;14.30;76.80;;;;;;5044980;28;20024;-70
2022/11/04 13:10:26;;;;;;;12.38;10.52;;;14.20;76.60;;;;;;5048799;28;20116;-69
2022/11/04 13:12:55;;;;;;;12.50;10.05;;;14.30;76.70;;;;;;5040430;28;20089;-70
2022/11/04 13:15:24;;;;;;;11.60;10.35;;;14.30;76.70;;;;;;5040654;28;20152;-69
2022/11/04 13:17:56;;;;;;;11.20;9.77;;;14.20;76.60;;;;;;5045538;28;20033;-70
2022/11/04 13:20:30;;;;;;;11.25;10.07;;;14.30;76.70;;;;;;5051041;28;20035;-70
2022/11/04 13:23:03;;;;;;;11.82;10.52;;;14.30;76.80;;;;;;5050104;28;20409;-70
2022/11/04 13:25:35;;;;;;;13.95;10.98;;;14.40;76.60;;;;;;5043054;28;20013;-70
2022/11/04 13:28:02;;;;;;;11.48;10.07;;;14.30;76.50;;;;;;5048094;28;20025;-70
2022/11/04 13:30:44;;;;;;;10.63;9.38;;;14.30;76.50;;;;;;5038356;28;20051;-70
2022/11/04 13:33:16;;;;;;;11.30;9.23;;;14.30;76.70;;;;;;5041510;28;20029;-70
2022/11/04 13:36:01;;;;;;;10.25;9.20;;;14.30;76.50;;;;;;5041143;28;20618;-70